Time;durP1;ratioP1;P1;durP2;ratioP2;P2;SDS_P1;SDS_P2;PMS_P1;PMS_P2;Temp;Humidity;BMP_temperature;BMP_pressure;BME280_temperature;BME280_humidity;BME280_pressure;Samples;Min_cycle;Max_cycle;Signal;HPM_P1;HPM_P2
2021/01/24 00:01:14;;;;;;;7.27;6.50;;;1.90;99.90;;;;;;5079332;28;20221;-78
2021/01/24 00:03:39;;;;;;;6.73;6.17;;;2.00;99.90;;;;;;5076477;28;20195;-78
2021/01/24 00:06:05;;;;;;;7.17;6.50;;;1.90;99.90;;;;;;5075168;28;20594;-78
2021/01/24 00:08:31;;;;;;;7.70;7.00;;;2.00;99.90;;;;;;5076897;28;20175;-78
2021/01/24 00:10:56;;;;;;;7.90;7.10;;;2.00;99.90;;;;;;5075746;28;20187;-78
2021/01/24 00:13:22;;;;;;;8.93;7.10;;;2.10;99.90;;;;;;5048547;28;20191;-78
2021/01/24 00:15:48;;;;;;;7.90;7.20;;;2.20;99.90;;;;;;5085239;28;20186;-78
2021/01/24 00:18:13;;;;;;;10.17;9.20;;;2.30;99.90;;;;;;5088496;28;20187;-78
2021/01/24 00:20:39;;;;;;;10.10;9.10;;;2.40;99.90;;;;;;5092717;28;20662;-78
2021/01/24 00:23:04;;;;;;;9.60;8.63;;;2.30;99.90;;;;;;5080244;28;20593;-78
2021/01/24 00:25:30;;;;;;;9.57;7.60;;;2.30;99.90;;;;;;5080216;28;20179;-78
2021/01/24 00:27:56;;;;;;;9.27;8.37;;;2.40;99.90;;;;;;5075526;28;20207;-78
2021/01/24 00:30:22;;;;;;;8.43;7.43;;;2.50;99.90;;;;;;5073509;28;20179;-78
2021/01/24 00:32:47;;;;;;;8.07;6.83;;;2.50;99.90;;;;;;5064940;28;20316;-78
2021/01/24 00:35:13;;;;;;;8.03;7.03;;;2.50;99.90;;;;;;5079233;28;20267;-77
2021/01/24 00:37:39;;;;;;;8.33;7.53;;;2.40;99.90;;;;;;5074738;28;20571;-78
2021/01/24 00:40:07;;;;;;;9.07;7.90;;;2.30;99.90;;;;;;5075141;28;20185;-78
2021/01/24 00:42:32;;;;;;;8.70;7.90;;;2.40;99.90;;;;;;5082753;28;20180;-78
2021/01/24 00:44:58;;;;;;;9.77;8.73;;;2.50;99.90;;;;;;5092406;28;20205;-78
2021/01/24 00:47:24;;;;;;;10.43;9.40;;;2.30;99.90;;;;;;5085194;28;20665;-77
2021/01/24 00:49:50;;;;;;;10.90;9.80;;;2.30;99.90;;;;;;5091242;28;20261;-77
2021/01/24 00:52:15;;;;;;;11.57;10.37;;;2.50;99.90;;;;;;5089390;28;20187;-78
2021/01/24 00:54:41;;;;;;;13.10;11.03;;;2.40;99.90;;;;;;5075851;28;20651;-78
2021/01/24 00:57:07;;;;;;;13.30;10.83;;;2.40;99.90;;;;;;5086063;28;20583;-78
2021/01/24 00:59:32;;;;;;;12.73;11.43;;;2.40;99.90;;;;;;5093403;28;20206;-77
2021/01/24 01:01:58;;;;;;;13.27;11.80;;;2.50;99.90;;;;;;5088906;28;20186;-78
2021/01/24 01:04:24;;;;;;;13.90;12.43;;;2.50;99.90;;;;;;5087563;28;20198;-78
2021/01/24 01:06:50;;;;;;;14.70;12.30;;;2.50;99.90;;;;;;5077819;28;20583;-78
2021/01/24 01:09:16;;;;;;;15.07;13.47;;;2.50;99.90;;;;;;5085719;28;20208;-77
2021/01/24 01:11:41;;;;;;;14.80;13.03;;;2.40;99.90;;;;;;5076828;28;20214;-78
2021/01/24 01:14:07;;;;;;;13.80;12.37;;;2.40;99.90;;;;;;5071983;28;20245;-78
2021/01/24 01:16:32;;;;;;;18.27;13.60;;;2.10;99.90;;;;;;5093275;28;20226;-78
2021/01/24 01:18:58;;;;;;;14.47;13.00;;;2.20;99.90;;;;;;5075631;28;20499;-78
2021/01/24 01:21:24;;;;;;;15.63;14.07;;;2.20;99.90;;;;;;5087745;28;20180;-78
2021/01/24 01:23:49;;;;;;;18.97;15.03;;;2.40;99.90;;;;;;5055488;28;20216;-78
2021/01/24 01:26:15;;;;;;;18.00;14.97;;;2.40;99.90;;;;;;5071945;28;20185;-78
2021/01/24 01:28:41;;;;;;;16.23;14.13;;;2.40;99.90;;;;;;5087042;28;20190;-78
2021/01/24 01:31:07;;;;;;;17.27;14.30;;;2.50;99.90;;;;;;5080295;28;20640;-78
2021/01/24 01:33:33;;;;;;;17.53;14.33;;;2.50;99.90;;;;;;5078331;28;20186;-78
2021/01/24 01:35:58;;;;;;;16.50;14.80;;;2.50;99.90;;;;;;5082674;28;20186;-78
2021/01/24 01:38:24;;;;;;;16.37;14.40;;;2.30;99.90;;;;;;5079830;28;20199;-78
2021/01/24 01:40:53;;;;;;;17.60;14.77;;;2.40;99.90;;;;;;5079020;28;20187;-78
2021/01/24 01:43:19;;;;;;;17.10;13.73;;;2.20;99.90;;;;;;5081465;28;20290;-78
2021/01/24 01:45:45;;;;;;;20.13;14.37;;;2.00;99.90;;;;;;5079228;28;20272;-78
2021/01/24 01:48:11;;;;;;;16.93;15.10;;;2.10;99.90;;;;;;5085485;28;20192;-78
2021/01/24 01:50:37;;;;;;;16.97;14.80;;;2.30;99.90;;;;;;5081693;28;20178;-78
2021/01/24 01:53:03;;;;;;;15.87;14.23;;;2.40;99.90;;;;;;5071252;28;20635;-78
2021/01/24 01:55:28;;;;;;;17.23;15.30;;;2.40;99.90;;;;;;5076180;28;20212;-79
2021/01/24 01:57:57;;;;;;;18.70;15.63;;;2.50;99.90;;;;;;5073192;28;20627;-78
2021/01/24 02:00:23;;;;;;;19.00;15.97;;;2.50;99.90;;;;;;5078455;28;20183;-78
2021/01/24 02:02:54;;;;;;;17.17;14.03;;;2.60;99.90;;;;;;5093030;28;20194;-78
2021/01/24 02:05:39;;;;;;;14.87;13.40;;;2.70;99.90;;;;;;5084107;28;20205;-78
2021/01/24 02:08:12;;;;;;;15.07;13.07;;;2.30;99.90;;;;;;5092024;28;20228;-78
2021/01/24 02:11:10;;;;;;;14.60;13.13;;;2.10;99.90;;;;;;5084519;28;20173;-78
2021/01/24 02:14:05;;;;;;;14.27;12.77;;;2.00;99.90;;;;;;5056750;28;20203;-78
2021/01/24 02:16:33;;;;;;;16.80;14.80;;;1.90;99.90;;;;;;5084719;28;20202;-78
2021/01/24 02:19:02;;;;;;;16.27;13.93;;;2.00;99.90;;;;;;5091407;28;20187;-78
2021/01/24 02:21:36;;;;;;;17.37;14.37;;;2.10;99.90;;;;;;5086291;28;20182;-79
2021/01/24 02:24:04;;;;;;;17.13;15.23;;;2.00;99.90;;;;;;5094708;28;20212;-79
2021/01/24 02:26:48;;;;;;;17.33;15.73;;;2.00;99.90;;;;;;5095974;28;20232;-78
2021/01/24 02:29:52;;;;;;;18.67;16.87;;;2.00;99.90;;;;;;5085214;28;20218;-79
2021/01/24 02:32:22;;;;;;;20.03;17.93;;;2.20;99.90;;;;;;5044668;28;20546;-79
2021/01/24 02:34:50;;;;;;;20.67;18.03;;;2.30;99.90;;;;;;5082510;28;20174;-78
2021/01/24 02:37:16;;;;;;;21.67;19.37;;;2.30;99.90;;;;;;5076246;28;20238;-78
2021/01/24 02:39:43;;;;;;;22.50;19.63;;;2.40;99.90;;;;;;5082358;28;20178;-78
2021/01/24 02:42:09;;;;;;;21.73;19.30;;;2.20;99.90;;;;;;5088745;28;20186;-78
2021/01/24 02:44:38;;;;;;;21.83;19.37;;;2.40;99.90;;;;;;5077201;28;20218;-78
2021/01/24 02:47:04;;;;;;;18.57;16.67;;;2.20;99.90;;;;;;5082275;28;20536;-78
2021/01/24 02:49:32;;;;;;;18.87;16.77;;;2.30;99.90;;;;;;5080067;28;20190;-79
2021/01/24 02:51:59;;;;;;;19.93;17.77;;;2.10;99.90;;;;;;5094583;28;20262;-79
2021/01/24 02:54:25;;;;;;;19.50;16.07;;;2.10;99.90;;;;;;5088757;28;20535;-78
2021/01/24 02:56:52;;;;;;;18.77;15.77;;;2.30;99.90;;;;;;5079059;28;20187;-78
2021/01/24 02:59:19;;;;;;;17.87;15.97;;;2.20;99.90;;;;;;5084205;28;20270;-78
2021/01/24 03:01:45;;;;;;;18.27;16.30;;;2.10;99.90;;;;;;5082248;28;20225;-78
2021/01/24 03:04:10;;;;;;;18.13;16.17;;;2.10;99.90;;;;;;5076545;28;20671;-78
2021/01/24 03:06:36;;;;;;;19.87;15.43;;;2.10;99.90;;;;;;5086832;28;20194;-78
2021/01/24 03:09:02;;;;;;;16.63;14.87;;;2.10;99.90;;;;;;5087963;28;20179;-78
2021/01/24 03:11:30;;;;;;;17.43;15.00;;;2.10;99.90;;;;;;5088143;28;20179;-78
2021/01/24 03:14:02;;;;;;;19.70;16.17;;;2.10;99.90;;;;;;5089262;28;20712;-78
2021/01/24 03:16:31;;;;;;;17.20;15.40;;;2.10;99.90;;;;;;5087533;28;20630;-78
2021/01/24 03:18:58;;;;;;;18.40;16.13;;;2.10;99.90;;;;;;5089845;28;20639;-78
2021/01/24 03:21:24;;;;;;;21.40;16.93;;;2.00;99.90;;;;;;5091669;28;20273;-79
2021/01/24 03:23:52;;;;;;;19.37;16.37;;;1.90;99.90;;;;;;5092774;28;20198;-78
2021/01/24 03:26:18;;;;;;;21.03;18.07;;;1.90;99.90;;;;;;5084946;28;20175;-78
2021/01/24 03:28:44;;;;;;;18.23;16.33;;;2.20;99.90;;;;;;5077599;28;20213;-78
2021/01/24 03:31:10;;;;;;;20.03;17.93;;;2.00;99.90;;;;;;5093402;28;20179;-78
2021/01/24 03:33:37;;;;;;;22.03;18.60;;;2.00;99.90;;;;;;5092435;28;20826;-78
2021/01/24 03:36:04;;;;;;;24.50;19.30;;;2.00;99.90;;;;;;5087496;28;20199;-78
2021/01/24 03:38:30;;;;;;;20.53;18.40;;;2.10;99.90;;;;;;5094048;28;20194;-78
2021/01/24 03:40:56;;;;;;;21.13;17.83;;;2.00;99.90;;;;;;5089321;28;20372;-78
2021/01/24 03:43:22;;;;;;;22.40;18.27;;;2.00;99.90;;;;;;5093969;28;20202;-78
2021/01/24 03:45:47;;;;;;;23.40;18.87;;;1.90;99.90;;;;;;5081243;28;20175;-78
2021/01/24 03:48:13;;;;;;;25.00;18.47;;;1.90;99.90;;;;;;5074509;28;20566;-78
2021/01/24 03:50:39;;;;;;;20.80;18.30;;;2.00;99.90;;;;;;5075466;28;20246;-78
2021/01/24 03:53:05;;;;;;;24.13;18.87;;;1.90;99.90;;;;;;5074077;28;20547;-78
2021/01/24 03:55:30;;;;;;;25.37;19.20;;;2.00;99.90;;;;;;5081647;28;20604;-78
2021/01/24 03:57:56;;;;;;;22.40;19.47;;;2.00;99.90;;;;;;5094899;28;20183;-78
2021/01/24 04:00:22;;;;;;;22.87;19.83;;;1.90;99.90;;;;;;5088611;28;20619;-77
2021/01/24 04:02:47;;;;;;;23.93;19.80;;;1.90;99.90;;;;;;5087121;28;20718;-78
2021/01/24 04:05:13;;;;;;;24.87;20.10;;;1.80;99.90;;;;;;5090716;28;20207;-78
2021/01/24 04:07:39;;;;;;;23.80;18.87;;;1.70;99.90;;;;;;5077900;28;20200;-78
2021/01/24 04:10:06;;;;;;;24.83;20.77;;;1.80;99.90;;;;;;5094493;28;20630;-78
2021/01/24 04:12:32;;;;;;;25.13;20.37;;;1.70;99.90;;;;;;5087185;28;20182;-78
2021/01/24 04:14:57;;;;;;;27.17;20.73;;;1.90;99.90;;;;;;5074507;28;20628;-78
2021/01/24 04:17:23;;;;;;;27.00;21.53;;;1.80;99.90;;;;;;5074282;28;20230;-78
2021/01/24 04:19:49;;;;;;;22.30;19.63;;;1.70;99.90;;;;;;5087048;28;20201;-78
2021/01/24 04:22:14;;;;;;;25.63;20.40;;;1.40;99.90;;;;;;5084474;28;20183;-78
2021/01/24 04:24:40;;;;;;;27.10;21.30;;;1.50;99.90;;;;;;5091546;28;20209;-78
2021/01/24 04:27:05;;;;;;;25.10;20.77;;;1.50;99.90;;;;;;5094169;28;20657;-78
2021/01/24 04:29:31;;;;;;;30.50;22.10;;;1.50;99.90;;;;;;5093481;28;20221;-78
2021/01/24 04:31:57;;;;;;;25.67;21.37;;;1.50;99.90;;;;;;5092001;28;20178;-78
2021/01/24 04:34:22;;;;;;;30.03;21.67;;;1.40;99.90;;;;;;5086739;28;20182;-78
2021/01/24 04:36:48;;;;;;;28.07;21.70;;;1.50;99.90;;;;;;5090095;28;20218;-78
2021/01/24 04:39:14;;;;;;;25.90;21.03;;;1.50;99.90;;;;;;5084213;28;20190;-79
2021/01/24 04:41:40;;;;;;;27.40;21.97;;;1.40;99.90;;;;;;5078242;28;20174;-79
2021/01/24 04:44:07;;;;;;;26.90;21.53;;;1.50;99.90;;;;;;5078794;28;20199;-78
2021/01/24 04:46:37;;;;;;;28.37;21.60;;;1.40;99.90;;;;;;5076425;28;20194;-78
2021/01/24 04:49:03;;;;;;;28.00;20.97;;;1.40;99.90;;;;;;5093274;28;20199;-78
2021/01/24 04:51:29;;;;;;;28.97;22.17;;;1.40;99.90;;;;;;5103911;28;20624;-78
2021/01/24 04:53:55;;;;;;;25.37;21.40;;;1.50;99.90;;;;;;5086023;28;20182;-78
2021/01/24 04:56:21;;;;;;;28.33;21.67;;;1.40;99.90;;;;;;5084762;28;20708;-78
2021/01/24 04:58:48;;;;;;;26.63;22.07;;;1.40;99.90;;;;;;5073695;28;20178;-78
2021/01/24 05:01:17;;;;;;;29.63;22.37;;;1.40;99.90;;;;;;5085088;28;20186;-78
2021/01/24 05:03:43;;;;;;;30.33;22.17;;;1.40;99.90;;;;;;5079428;28;20202;-78
2021/01/24 05:06:09;;;;;;;28.77;23.47;;;1.40;99.90;;;;;;5078197;28;20236;-78
2021/01/24 05:08:34;;;;;;;31.70;23.13;;;1.40;99.90;;;;;;5093641;28;20627;-78
2021/01/24 05:11:08;;;;;;;30.33;22.87;;;1.40;99.90;;;;;;5084152;28;20202;-78
2021/01/24 05:13:34;;;;;;;28.33;23.37;;;1.60;99.90;;;;;;5089775;28;20537;-78
2021/01/24 05:16:00;;;;;;;26.93;22.60;;;1.50;99.90;;;;;;5072068;28;20205;-78
2021/01/24 05:18:27;;;;;;;28.93;22.13;;;1.40;99.90;;;;;;5087324;28;20705;-78
2021/01/24 05:20:53;;;;;;;26.07;21.60;;;1.50;99.90;;;;;;5086217;28;20186;-78
2021/01/24 05:23:23;;;;;;;26.73;20.53;;;1.50;99.90;;;;;;5086350;28;20181;-78
2021/01/24 05:25:52;;;;;;;27.47;21.67;;;1.50;99.90;;;;;;5081605;28;20606;-78
2021/01/24 05:28:18;;;;;;;29.33;20.77;;;1.50;99.90;;;;;;5055999;28;20198;-78
2021/01/24 05:30:44;;;;;;;27.00;20.10;;;1.50;99.90;;;;;;5080786;28;20179;-78
2021/01/24 05:33:10;;;;;;;29.57;20.43;;;1.40;99.90;;;;;;5073020;28;20258;-78
2021/01/24 05:35:47;;;;;;;29.67;20.40;;;1.40;99.90;;;;;;5074264;28;20262;-79
2021/01/24 05:38:32;;;;;;;25.67;19.70;;;1.40;99.90;;;;;;5083211;28;20194;-78
2021/01/24 05:41:04;;;;;;;26.47;19.97;;;1.60;99.90;;;;;;5083793;28;20700;-78
2021/01/24 05:43:39;;;;;;;27.87;19.87;;;1.50;99.90;;;;;;5072530;28;20251;-78
2021/01/24 05:46:06;;;;;;;24.73;21.47;;;1.50;99.90;;;;;;5092927;28;20175;-78
2021/01/24 05:48:36;;;;;;;29.23;20.60;;;1.50;99.90;;;;;;5087297;28;20275;-78
2021/01/24 05:51:05;;;;;;;26.90;21.10;;;1.50;99.90;;;;;;5075969;28;20182;-78
2021/01/24 05:53:38;;;;;;;32.70;21.83;;;1.60;99.90;;;;;;5088546;28;20174;-78
2021/01/24 05:56:15;;;;;;;27.33;21.30;;;1.50;99.90;;;;;;5081433;28;20214;-79
2021/01/24 05:58:40;;;;;;;32.10;23.20;;;1.40;99.90;;;;;;5076934;28;20174;-78
2021/01/24 06:01:08;;;;;;;30.03;22.80;;;1.40;99.90;;;;;;5078484;28;20192;-78
2021/01/24 06:03:35;;;;;;;29.23;22.33;;;1.30;99.90;;;;;;5072725;28;20198;-78
2021/01/24 06:06:00;;;;;;;31.83;23.97;;;1.30;99.90;;;;;;5081813;28;20240;-78
2021/01/24 06:08:26;;;;;;;31.47;24.50;;;1.20;99.90;;;;;;5071485;28;20179;-78
2021/01/24 06:10:54;;;;;;;33.87;24.20;;;1.20;99.90;;;;;;5080053;28;20179;-78
2021/01/24 06:13:24;;;;;;;32.90;24.50;;;1.20;99.90;;;;;;5071897;28;20189;-78
2021/01/24 06:15:52;;;;;;;31.53;24.87;;;1.30;99.90;;;;;;5077039;28;20179;-77
2021/01/24 06:18:23;;;;;;;32.53;24.50;;;1.30;99.90;;;;;;5090600;28;20233;-78
2021/01/24 06:20:57;;;;;;;35.97;25.37;;;1.40;99.90;;;;;;5085534;28;20224;-78
2021/01/24 06:23:36;;;;;;;35.53;24.80;;;1.30;99.90;;;;;;5072891;28;20171;-78
2021/01/24 06:26:08;;;;;;;33.17;24.70;;;1.30;99.90;;;;;;5080016;28;20634;-77
2021/01/24 06:28:39;;;;;;;32.27;24.33;;;1.10;99.90;;;;;;5075454;28;20191;-78
2021/01/24 06:31:15;;;;;;;34.57;24.90;;;1.10;99.90;;;;;;5089001;28;20163;-78
2021/01/24 06:33:44;;;;;;;31.30;24.03;;;1.20;99.90;;;;;;5091129;28;20182;-78
2021/01/24 06:36:11;;;;;;;34.23;26.10;;;1.20;99.90;;;;;;5083294;28;20236;-78
2021/01/24 06:38:38;;;;;;;35.30;25.10;;;1.10;99.90;;;;;;5082793;28;20586;-78
2021/01/24 06:41:06;;;;;;;38.23;25.43;;;1.10;99.90;;;;;;5080669;28;20179;-78
2021/01/24 06:43:41;;;;;;;34.93;25.47;;;1.00;99.90;;;;;;5091037;28;20202;-78
2021/01/24 06:46:26;;;;;;;33.10;25.53;;;1.00;99.90;;;;;;5091903;28;20196;-78
2021/01/24 06:48:53;;;;;;;25.03;15.60;;;0.90;99.90;;;;;;5088819;28;20183;-78
2021/01/24 06:51:33;;;;;;;27.77;15.60;;;0.80;99.90;;;;;;5083726;28;20194;-79
2021/01/24 06:54:00;;;;;;;34.23;26.20;;;0.70;99.90;;;;;;5072237;28;20170;-78
2021/01/24 06:56:46;;;;;;;33.60;26.37;;;0.90;99.90;;;;;;5076922;28;20891;-78
2021/01/24 06:59:13;;;;;;;37.13;26.33;;;1.00;99.90;;;;;;5083891;28;20193;-78
2021/01/24 07:01:40;;;;;;;36.13;25.37;;;1.00;99.90;;;;;;5076678;28;20198;-78
2021/01/24 07:04:21;;;;;;;35.00;26.53;;;1.00;99.90;;;;;;5054950;28;20217;-78
2021/01/24 07:06:49;;;;;;;36.73;26.23;;;1.10;99.90;;;;;;5078517;28;20270;-78
2021/01/24 07:09:24;;;;;;;36.53;26.90;;;1.10;99.90;;;;;;5089711;28;20175;-78
2021/01/24 07:11:55;;;;;;;35.93;25.97;;;1.00;99.90;;;;;;5089027;28;20170;-78
2021/01/24 07:14:36;;;;;;;40.83;27.53;;;1.00;99.90;;;;;;5095814;28;20182;-77
2021/01/24 07:17:20;;;;;;;33.37;17.20;;;0.90;99.90;;;;;;5095698;28;20170;-78
2021/01/24 07:19:51;;;;;;;30.80;16.83;;;0.70;99.90;;;;;;5073998;28;20270;-77
2021/01/24 07:22:18;;;;;;;30.30;16.87;;;0.80;99.90;;;;;;5074088;28;20193;-77
2021/01/24 07:24:46;;;;;;;34.50;25.80;;;0.90;99.90;;;;;;5077187;28;20204;-78
2021/01/24 07:27:28;;;;;;;35.07;27.00;;;0.90;99.90;;;;;;5080092;28;20210;-77
2021/01/24 07:29:55;;;;;;;39.47;26.90;;;1.00;99.90;;;;;;5048303;28;20191;-77
2021/01/24 07:32:23;;;;;;;36.60;28.03;;;0.90;99.90;;;;;;5072264;28;20709;-77
2021/01/24 07:34:55;;;;;;;38.73;27.87;;;0.90;99.90;;;;;;5079816;28;20190;-77
2021/01/24 07:37:22;;;;;;;35.80;28.17;;;0.90;99.90;;;;;;5069039;28;20329;-77
2021/01/24 07:39:50;;;;;;;37.20;28.10;;;0.80;99.90;;;;;;5052860;28;20198;-77
2021/01/24 07:42:16;;;;;;;39.20;27.93;;;0.80;99.90;;;;;;5055506;28;20278;-77
2021/01/24 07:44:43;;;;;;;39.43;28.83;;;0.70;99.90;;;;;;5055147;28;20649;-77
2021/01/24 07:47:10;;;;;;;35.07;27.60;;;0.70;99.90;;;;;;5066167;28;20728;-77
2021/01/24 07:49:36;;;;;;;35.57;28.27;;;0.70;99.90;;;;;;5065469;28;20574;-78
2021/01/24 07:52:07;;;;;;;40.13;27.70;;;0.90;99.90;;;;;;5047945;28;20221;-77
2021/01/24 07:54:34;;;;;;;33.33;26.57;;;0.90;99.90;;;;;;5070377;28;20186;-77
2021/01/24 07:57:01;;;;;;;31.97;26.77;;;0.80;99.90;;;;;;5054778;28;20278;-77
2021/01/24 07:59:28;;;;;;;33.73;17.73;;;1.00;99.90;;;;;;5031913;28;20282;-78
2021/01/24 08:01:53;;;;;;;33.87;27.30;;;1.00;99.90;;;;;;5073207;28;20200;-77
2021/01/24 08:04:23;;;;;;;32.37;16.80;;;1.00;99.90;;;;;;5092352;28;20202;-77
2021/01/24 08:06:49;;;;;;;27.10;17.17;;;0.90;99.90;;;;;;5089162;28;20183;-77
2021/01/24 08:09:16;;;;;;;30.60;18.20;;;1.00;99.90;;;;;;5087129;28;20179;-77
2021/01/24 08:11:42;;;;;;;35.70;28.17;;;1.20;99.90;;;;;;5080548;28;20235;-78
2021/01/24 08:14:08;;;;;;;34.53;27.20;;;1.90;99.90;;;;;;5081862;28;20187;-77
2021/01/24 08:16:38;;;;;;;30.53;24.23;;;2.60;99.90;;;;;;5078181;28;20184;-77
2021/01/24 08:19:06;;;;;;;21.37;19.00;;;3.20;99.90;;;;;;5092828;28;20186;-76
2021/01/24 08:21:33;;;;;;;27.20;21.93;;;4.00;99.90;;;;;;5081671;28;20317;-78
2021/01/24 08:24:00;;;;;;;23.10;19.27;;;4.70;99.90;;;;;;5090194;28;20209;-78
2021/01/24 08:26:26;;;;;;;22.93;16.37;;;5.30;99.90;;;;;;5080639;28;20188;-77
2021/01/24 08:28:52;;;;;;;18.77;14.33;;;5.40;99.90;;;;;;5078129;28;20216;-77
2021/01/24 08:31:21;;;;;;;15.03;13.47;;;6.00;99.90;;;;;;5074284;28;20178;-78
2021/01/24 08:33:48;;;;;;;14.10;12.30;;;7.00;99.90;;;;;;5077026;28;20619;-78
2021/01/24 08:36:16;;;;;;;13.83;12.20;;;8.30;99.90;;;;;;5088087;28;20264;-77
2021/01/24 08:38:44;;;;;;;13.90;12.50;;;8.50;99.90;;;;;;5079619;28;20187;-78
2021/01/24 08:41:11;;;;;;;13.20;11.70;;;9.30;99.90;;;;;;5082785;28;20542;-78
2021/01/24 08:43:38;;;;;;;14.43;12.00;;;9.80;99.90;;;;;;5093256;28;20206;-78
2021/01/24 08:46:24;;;;;;;13.40;12.00;;;10.20;99.90;;;;;;5086457;28;20596;-78
2021/01/24 08:49:04;;;;;;;16.07;12.07;;;10.80;99.90;;;;;;5100599;28;20191;-78
2021/01/24 08:51:39;;;;;;;14.23;11.50;;;10.80;99.90;;;;;;5078556;28;20206;-79
2021/01/24 08:54:17;;;;;;;15.20;11.30;;;11.00;99.90;;;;;;5081657;28;20260;-78
2021/01/24 08:56:43;;;;;;;17.20;11.07;;;11.20;99.90;;;;;;5093602;28;20177;-78
2021/01/24 08:59:36;;;;;;;15.10;10.67;;;11.50;99.70;;;;;;5091254;28;20273;-78
2021/01/24 09:02:03;;;;;;;16.57;10.50;;;11.20;99.00;;;;;;5092811;28;20167;-78
2021/01/24 09:04:33;;;;;;;16.07;10.93;;;11.50;98.50;;;;;;5087492;28;20202;-78
2021/01/24 09:06:59;;;;;;;16.43;11.00;;;11.80;97.50;;;;;;5092205;28;20361;-78
2021/01/24 09:09:29;;;;;;;16.80;11.70;;;11.60;97.40;;;;;;5090629;28;20214;-78
2021/01/24 09:11:55;;;;;;;17.40;11.43;;;11.70;97.50;;;;;;5073109;28;20271;-78
2021/01/24 09:14:22;;;;;;;14.33;11.13;;;12.00;96.80;;;;;;5071884;28;20175;-78
2021/01/24 09:17:00;;;;;;;15.77;11.00;;;12.20;96.00;;;;;;5072255;28;20183;-78
2021/01/24 09:19:26;;;;;;;14.67;10.40;;;11.70;97.20;;;;;;5073319;28;20211;-78
2021/01/24 09:21:51;;;;;;;16.17;12.13;;;12.40;96.10;;;;;;5072628;28;20662;-78
2021/01/24 09:24:17;;;;;;;16.67;11.43;;;12.30;94.50;;;;;;5077355;28;20202;-78
2021/01/24 09:26:45;;;;;;;18.03;12.10;;;12.50;94.90;;;;;;5084129;28;20189;-79
2021/01/24 09:29:12;;;;;;;17.23;12.13;;;11.90;95.10;;;;;;5088672;28;20736;-80
2021/01/24 09:31:38;;;;;;;16.27;11.60;;;11.90;95.50;;;;;;5102089;28;20231;-78
2021/01/24 09:34:03;;;;;;;17.47;12.37;;;11.40;96.90;;;;;;5106045;28;20194;-78
2021/01/24 09:36:29;;;;;;;14.27;10.50;;;11.60;97.30;;;;;;5105808;28;20183;-79
2021/01/24 09:38:54;;;;;;;16.80;12.40;;;11.90;96.20;;;;;;5093373;28;20163;-78
2021/01/24 09:41:20;;;;;;;16.13;11.27;;;11.70;95.90;;;;;;5089833;28;20189;-78
2021/01/24 09:43:46;;;;;;;17.40;11.43;;;11.80;96.20;;;;;;5075555;28;20227;-79
2021/01/24 09:46:12;;;;;;;17.83;11.93;;;11.90;95.70;;;;;;5084396;28;20268;-79
2021/01/24 09:48:37;;;;;;;18.70;11.73;;;11.80;95.70;;;;;;5088917;28;20179;-78
2021/01/24 09:51:04;;;;;;;22.83;12.70;;;11.60;95.80;;;;;;5091708;28;20541;-79
2021/01/24 09:53:30;;;;;;;16.97;12.07;;;11.20;96.60;;;;;;5079179;28;20175;-76
2021/01/24 09:55:56;;;;;;;19.73;11.77;;;10.90;98.30;;;;;;5074202;28;20183;-76
2021/01/24 09:58:21;;;;;;;22.97;13.10;;;10.70;99.20;;;;;;5083642;28;20197;-77
2021/01/24 10:00:47;;;;;;;19.60;13.70;;;10.50;99.60;;;;;;5092106;28;20230;-78
2021/01/24 10:03:12;;;;;;;17.47;13.20;;;10.70;99.70;;;;;;5080659;28;20193;-77
2021/01/24 10:05:41;;;;;;;16.30;11.93;;;10.80;99.60;;;;;;5089514;28;20201;-77
2021/01/24 10:08:06;;;;;;;16.27;11.47;;;11.40;98.00;;;;;;5074754;28;20185;-78
2021/01/24 10:10:32;;;;;;;15.97;11.67;;;10.80;98.90;;;;;;5078621;28;20186;-77
2021/01/24 10:12:58;;;;;;;20.07;12.43;;;11.10;98.80;;;;;;5081358;28;20277;-77
2021/01/24 10:15:23;;;;;;;20.63;12.63;;;11.80;97.20;;;;;;5092797;28;20190;-78
2021/01/24 10:17:49;;;;;;;16.83;12.00;;;12.00;96.30;;;;;;5084624;28;20741;-78
2021/01/24 10:20:18;;;;;;;19.67;12.40;;;12.30;96.00;;;;;;5101245;28;20277;-78
2021/01/24 10:22:44;;;;;;;17.53;11.40;;;11.50;96.60;;;;;;5091154;28;20188;-78
2021/01/24 10:25:10;;;;;;;16.27;10.87;;;11.60;97.40;;;;;;5071461;28;20199;-78
2021/01/24 10:27:36;;;;;;;15.90;11.30;;;11.10;97.70;;;;;;5072420;28;20167;-78
2021/01/24 10:30:08;;;;;;;20.70;12.13;;;10.50;99.40;;;;;;5071327;28;20187;-78
2021/01/24 10:32:34;;;;;;;19.83;11.53;;;9.40;99.90;;;;;;5071232;28;20665;-77
2021/01/24 10:35:00;;;;;;;18.77;12.43;;;8.10;99.90;;;;;;5081465;28;20187;-78
2021/01/24 10:37:25;;;;;;;20.10;15.30;;;7.70;99.90;;;;;;5083950;28;20310;-78
2021/01/24 10:39:51;;;;;;;24.57;14.33;;;7.30;99.90;;;;;;5092555;28;20301;-77
2021/01/24 10:42:17;;;;;;;21.77;14.67;;;6.70;99.90;;;;;;5094430;28;20264;-78
2021/01/24 10:44:42;;;;;;;22.37;15.47;;;6.40;99.90;;;;;;5090598;28;20664;-78
2021/01/24 10:47:08;;;;;;;21.57;16.10;;;6.00;99.90;;;;;;5080344;28;20192;-77
2021/01/24 10:49:33;;;;;;;20.07;15.97;;;5.80;99.90;;;;;;5078068;28;20179;-77
2021/01/24 10:51:59;;;;;;;23.17;17.07;;;5.40;99.90;;;;;;5074581;28;20548;-77
2021/01/24 10:54:24;;;;;;;22.13;17.03;;;5.30;99.90;;;;;;5081799;28;20190;-78
2021/01/24 10:56:50;;;;;;;21.00;18.57;;;5.20;99.90;;;;;;5081715;28;20190;-78
2021/01/24 10:59:16;;;;;;;31.80;21.03;;;5.30;99.90;;;;;;5095183;28;20223;-78
2021/01/24 11:01:42;;;;;;;19.60;16.33;;;5.20;99.90;;;;;;5082264;28;20621;-78
2021/01/24 11:04:07;;;;;;;19.77;15.40;;;5.20;99.90;;;;;;5095875;28;20691;-77
2021/01/24 11:06:33;;;;;;;18.53;15.10;;;5.40;99.90;;;;;;5083106;28;20184;-78
2021/01/24 11:08:58;;;;;;;19.80;16.73;;;5.40;99.90;;;;;;5087517;28;20185;-76
2021/01/24 11:11:24;;;;;;;19.23;15.40;;;5.90;99.90;;;;;;5084595;28;20182;-77
2021/01/24 11:13:50;;;;;;;19.23;15.73;;;6.10;99.90;;;;;;5085226;28;20550;-77
2021/01/24 11:16:15;;;;;;;18.07;14.93;;;6.10;99.90;;;;;;5086761;28;20189;-77
2021/01/24 11:18:41;;;;;;;19.47;15.23;;;6.20;99.90;;;;;;5089192;28;20191;-77
2021/01/24 11:21:06;;;;;;;20.63;16.33;;;6.00;99.90;;;;;;5086774;28;20196;-77
2021/01/24 11:23:32;;;;;;;18.23;14.80;;;5.50;99.90;;;;;;5086270;28;20655;-77
2021/01/24 11:25:58;;;;;;;19.90;15.90;;;5.50;99.90;;;;;;5074067;28;20181;-78
2021/01/24 11:28:23;;;;;;;19.33;14.87;;;5.70;99.90;;;;;;5076751;28;20187;-78
2021/01/24 11:30:49;;;;;;;20.40;15.80;;;5.70;99.90;;;;;;5075081;28;20665;-77
2021/01/24 11:33:15;;;;;;;17.73;14.70;;;5.90;99.90;;;;;;5054170;28;20957;-77
2021/01/24 11:35:40;;;;;;;17.90;14.77;;;5.70;99.90;;;;;;5085030;28;20580;-77
2021/01/24 11:38:07;;;;;;;17.40;15.47;;;5.60;99.90;;;;;;5076212;28;20200;-78
2021/01/24 11:40:32;;;;;;;19.47;14.33;;;5.30;99.90;;;;;;5086329;28;20185;-77
2021/01/24 11:42:58;;;;;;;20.87;15.50;;;5.10;99.90;;;;;;5095314;28;20204;-78
2021/01/24 11:45:24;;;;;;;20.13;15.30;;;5.10;99.90;;;;;;5097199;28;20230;-78
2021/01/24 11:47:51;;;;;;;18.23;15.40;;;5.00;99.90;;;;;;5097610;28;20237;-78
2021/01/24 11:50:17;;;;;;;20.63;15.83;;;4.70;99.90;;;;;;5090877;28;20205;-78
2021/01/24 11:52:42;;;;;;;22.40;15.97;;;4.60;99.90;;;;;;5098724;28;20188;-72
2021/01/24 11:55:08;;;;;;;23.33;16.10;;;4.80;99.90;;;;;;5102225;28;20203;-77
2021/01/24 11:57:34;;;;;;;19.90;16.00;;;5.00;99.90;;;;;;5096087;28;20265;-77
2021/01/24 12:00:00;;;;;;;18.07;15.27;;;5.00;99.90;;;;;;5083460;28;20275;-77
2021/01/24 12:02:25;;;;;;;18.17;14.83;;;5.00;99.90;;;;;;5096774;28;20272;-78
2021/01/24 12:04:51;;;;;;;19.87;16.37;;;4.80;99.90;;;;;;5098073;28;20195;-78
2021/01/24 12:07:17;;;;;;;17.87;15.17;;;4.80;99.90;;;;;;5094631;28;20197;-78
2021/01/24 12:09:42;;;;;;;20.83;15.90;;;4.80;99.90;;;;;;5081929;28;20183;-78
2021/01/24 12:12:08;;;;;;;19.93;16.47;;;4.80;99.90;;;;;;5087431;28;20268;-77
2021/01/24 12:14:35;;;;;;;19.80;16.20;;;4.70;99.90;;;;;;5097539;28;20280;-77
2021/01/24 12:17:01;;;;;;;17.77;15.73;;;4.80;99.90;;;;;;5076837;28;20553;-77
2021/01/24 12:19:26;;;;;;;18.43;15.80;;;4.80;99.90;;;;;;5074319;28;20178;-77
2021/01/24 12:21:52;;;;;;;17.90;14.67;;;4.90;99.90;;;;;;5074495;28;20185;-77
2021/01/24 12:24:18;;;;;;;17.87;13.97;;;4.80;99.90;;;;;;5074267;28;20192;-77
2021/01/24 12:26:44;;;;;;;14.50;12.97;;;4.80;99.90;;;;;;5090061;28;20706;-77
2021/01/24 12:29:10;;;;;;;15.80;13.00;;;4.80;99.90;;;;;;5080417;28;20185;-77
2021/01/24 12:31:36;;;;;;;19.70;13.00;;;4.60;99.90;;;;;;5072972;28;20538;-77
2021/01/24 12:34:01;;;;;;;19.77;12.20;;;4.50;99.90;;;;;;5088459;28;20190;-77
2021/01/24 12:36:27;;;;;;;12.80;11.23;;;4.50;99.90;;;;;;5094416;28;20208;-77
2021/01/24 12:38:53;;;;;;;16.13;12.43;;;4.30;99.90;;;;;;5091312;28;20653;-77